createdAt,value
2024-02-14T00:00:51.751Z,7.40
2024-02-14T00:03:18.633Z,7.40
2024-02-14T00:05:46.027Z,7.30
2024-02-14T00:08:15.922Z,7.30
2024-02-14T00:10:44.599Z,7.30
2024-02-14T00:13:11.947Z,7.30
2024-02-14T00:15:38.641Z,8.10
2024-02-14T00:18:05.920Z,7.20
2024-02-14T00:20:33.651Z,7.10
2024-02-14T00:23:00.481Z,7.10
2024-02-14T00:25:27.095Z,7.10
2024-02-14T00:27:55.255Z,7.20
2024-02-14T00:30:24.088Z,7.10
2024-02-14T00:32:51.665Z,7.20
2024-02-14T00:35:18.581Z,7.20
2024-02-14T00:37:45.578Z,7.10
2024-02-14T00:40:12.755Z,7.10
2024-02-14T00:42:39.400Z,7.10
2024-02-14T00:45:09.950Z,7.10
2024-02-14T00:47:37.264Z,7.10
2024-02-14T00:50:04.683Z,7.10
2024-02-14T00:52:31.341Z,7.10
2024-02-14T00:54:58.444Z,7.10
2024-02-14T00:57:27.855Z,7.10
2024-02-14T00:59:54.662Z,7.10
2024-02-14T01:02:22.352Z,7.10
2024-02-14T01:04:49.202Z,7.20
2024-02-14T01:07:15.921Z,7.20
2024-02-14T01:09:42.510Z,7.20
2024-02-14T01:12:09.405Z,7.20
2024-02-14T01:14:36.178Z,7.30
2024-02-14T01:17:04.850Z,7.20
2024-02-14T01:19:31.633Z,7.20
2024-02-14T01:21:58.279Z,7.20
2024-02-14T01:24:27.870Z,7.20
2024-02-14T01:26:56.149Z,7.20
2024-02-14T01:29:24.383Z,7.20
2024-02-14T01:31:51.416Z,7.20
2024-02-14T01:34:18.284Z,7.30
2024-02-14T01:36:45.265Z,7.30
2024-02-14T01:39:12.434Z,7.30
2024-02-14T01:41:39.733Z,7.30
2024-02-14T01:44:07.076Z,7.30
2024-02-14T01:46:34.201Z,7.30
2024-02-14T01:49:01.101Z,7.30
2024-02-14T01:51:28.087Z,7.30
2024-02-14T01:53:55.693Z,7.40
2024-02-14T01:56:22.761Z,7.40
2024-02-14T01:58:50.029Z,8.70
2024-02-14T02:01:18.918Z,7.40
2024-02-14T02:03:45.760Z,7.40
2024-02-14T02:06:12.884Z,7.40
2024-02-14T02:08:39.604Z,7.40
2024-02-14T02:11:07.605Z,7.40
2024-02-14T02:13:34.248Z,7.40
2024-02-14T02:16:02.386Z,7.40
2024-02-14T02:18:29.181Z,7.40
2024-02-14T02:20:55.989Z,7.40
2024-02-14T02:23:22.843Z,7.40
2024-02-14T02:25:49.584Z,7.40
2024-02-14T02:28:16.307Z,7.30
2024-02-14T02:30:43.138Z,7.30
2024-02-14T02:33:09.903Z,7.30
2024-02-14T02:35:43.445Z,7.30
2024-02-14T02:38:10.111Z,7.30
2024-02-14T02:40:36.852Z,7.30
2024-02-14T02:43:04.282Z,7.30
2024-02-14T02:45:30.904Z,7.30
2024-02-14T02:47:57.729Z,7.30
2024-02-14T02:50:24.457Z,7.30
2024-02-14T02:52:51.116Z,7.30
2024-02-14T02:55:19.129Z,7.20
2024-02-14T02:57:46.726Z,7.20
2024-02-14T03:00:14.667Z,7.20
2024-02-14T03:02:46.104Z,7.10
2024-02-14T03:05:19.157Z,7.20
2024-02-14T03:07:46.503Z,7.10
2024-02-14T03:10:19.612Z,7.20
2024-02-14T03:12:50.565Z,7.20
2024-02-14T03:15:18.093Z,7.10
2024-02-14T03:17:45.430Z,7.10
2024-02-14T03:20:17.655Z,7.20
2024-02-14T03:22:45.675Z,7.10
2024-02-14T03:25:18.664Z,7.00
2024-02-14T03:27:48.136Z,7.00
2024-02-14T03:30:17.358Z,6.90
2024-02-14T03:32:44.838Z,7.00
2024-02-14T03:35:12.104Z,7.00
2024-02-14T03:37:40.478Z,7.00
2024-02-14T03:40:07.848Z,6.90
2024-02-14T03:42:35.600Z,6.90
2024-02-14T03:45:06.945Z,6.90
2024-02-14T03:47:33.964Z,6.90
2024-02-14T03:50:01.142Z,6.80
2024-02-14T03:52:27.838Z,6.90
2024-02-14T03:54:55.868Z,7.70
2024-02-14T03:57:22.525Z,6.90
2024-02-14T03:59:49.186Z,6.80
2024-02-14T04:02:16.061Z,6.80
2024-02-14T04:04:43.364Z,6.80
2024-02-14T04:07:10.227Z,6.80
2024-02-14T04:09:37.031Z,6.80
2024-02-14T04:12:04.021Z,6.80
2024-02-14T04:14:30.851Z,6.80
2024-02-14T04:16:57.526Z,6.80
2024-02-14T04:19:24.312Z,6.80
2024-02-14T04:21:51.530Z,6.80
2024-02-14T04:24:18.297Z,7.60
2024-02-14T04:26:44.986Z,6.80
2024-02-14T04:29:11.856Z,6.80
2024-02-14T04:31:38.594Z,6.70
2024-02-14T04:34:06.236Z,6.70
2024-02-14T04:36:36.025Z,6.70
2024-02-14T04:39:03.049Z,6.70
2024-02-14T04:41:29.845Z,6.70
2024-02-14T04:43:56.519Z,6.70
2024-02-14T04:46:23.500Z,6.80
2024-02-14T04:48:50.390Z,6.70
2024-02-14T04:51:17.231Z,6.70
2024-02-14T04:53:43.995Z,6.70
2024-02-14T04:56:10.608Z,6.80
2024-02-14T04:58:37.408Z,6.80
2024-02-14T05:01:04.331Z,6.70
2024-02-14T05:03:31.166Z,6.70
2024-02-14T05:05:59.073Z,6.70
2024-02-14T05:08:25.821Z,8.30
2024-02-14T05:10:52.566Z,6.80
2024-02-14T05:13:19.268Z,6.70
2024-02-14T05:15:45.918Z,6.70
2024-02-14T05:18:13.435Z,8.10
2024-02-14T05:20:40.145Z,6.70
2024-02-14T05:23:06.858Z,6.70
2024-02-14T05:25:34.089Z,6.70
2024-02-14T05:28:01.962Z,6.70
2024-02-14T05:30:28.690Z,6.80
2024-02-14T05:32:56.558Z,6.70
2024-02-14T05:35:23.623Z,6.70
2024-02-14T05:37:51.223Z,6.80
2024-02-14T05:40:18.098Z,6.80
2024-02-14T05:42:46.288Z,6.80
2024-02-14T05:45:14.267Z,6.80
2024-02-14T05:47:41.134Z,6.80
2024-02-14T05:50:10.011Z,6.80
2024-02-14T05:52:36.909Z,6.80
2024-02-14T05:55:04.488Z,7.10
2024-02-14T05:57:31.166Z,6.80
2024-02-14T05:59:58.285Z,6.80
2024-02-14T06:02:25.052Z,6.80
2024-02-14T06:04:52.343Z,7.00
2024-02-14T06:07:18.977Z,6.80
2024-02-14T06:09:46.670Z,6.80
2024-02-14T06:12:13.483Z,6.90
2024-02-14T06:14:40.539Z,6.90
2024-02-14T06:17:07.334Z,8.00
2024-02-14T06:19:39.276Z,7.00
2024-02-14T06:22:07.292Z,6.90
2024-02-14T06:24:33.960Z,6.90
2024-02-14T06:27:00.721Z,7.00
2024-02-14T06:29:27.418Z,7.00
2024-02-14T06:31:54.980Z,7.00
2024-02-14T06:34:21.922Z,7.00
2024-02-14T06:36:48.912Z,7.00
2024-02-14T06:39:15.890Z,7.00
2024-02-14T06:41:42.644Z,7.00
2024-02-14T06:44:09.440Z,7.10
2024-02-14T06:46:38.618Z,7.10
2024-02-14T06:49:05.707Z,7.10
2024-02-14T06:51:32.575Z,7.20
2024-02-14T06:53:59.290Z,7.20
2024-02-14T06:56:25.971Z,7.10
2024-02-14T06:58:55.312Z,7.20
2024-02-14T07:01:26.232Z,7.20
2024-02-14T07:03:54.350Z,7.10
2024-02-14T07:06:21.652Z,7.10
2024-02-14T07:08:51.246Z,7.20
2024-02-14T07:11:18.020Z,7.20
2024-02-14T07:13:44.836Z,7.20
2024-02-14T07:16:12.052Z,7.20
2024-02-14T07:18:39.084Z,7.20
2024-02-14T07:21:06.903Z,7.20
2024-02-14T07:23:34.963Z,7.20
2024-02-14T07:26:05.100Z,7.30
2024-02-14T07:28:33.277Z,7.30
2024-02-14T07:30:59.993Z,7.30
2024-02-14T07:33:26.894Z,7.40
2024-02-14T07:35:53.677Z,7.30
2024-02-14T07:38:20.449Z,8.00
2024-02-14T07:40:47.265Z,7.30
2024-02-14T07:43:13.910Z,7.30
2024-02-14T07:45:40.626Z,7.30
2024-02-14T07:48:08.944Z,7.40
2024-02-14T07:50:35.760Z,7.40
2024-02-14T07:53:02.901Z,7.40
2024-02-14T07:55:29.639Z,7.40
2024-02-14T07:57:56.360Z,7.40
2024-02-14T08:00:25.914Z,7.40
2024-02-14T08:02:53.151Z,7.50
2024-02-14T08:05:20.426Z,7.50
2024-02-14T08:07:49.771Z,7.60
2024-02-14T08:10:16.687Z,7.60
2024-02-14T08:12:43.956Z,7.60
2024-02-14T08:15:10.754Z,7.60
2024-02-14T08:17:38.309Z,7.60
2024-02-14T08:20:05.885Z,7.60
2024-02-14T08:22:32.868Z,7.60
2024-02-14T08:25:00.440Z,7.70
2024-02-14T08:27:28.683Z,7.60
2024-02-14T08:29:55.753Z,7.70
2024-02-14T08:32:23.371Z,7.70
2024-02-14T08:34:51.326Z,7.70
2024-02-14T08:37:18.202Z,7.70
2024-02-14T08:39:45.509Z,7.80
2024-02-14T08:42:12.461Z,7.80
2024-02-14T08:44:39.195Z,7.80
2024-02-14T08:47:06.252Z,7.90
2024-02-14T08:49:32.961Z,7.90
2024-02-14T08:51:59.708Z,7.90
2024-02-14T08:54:26.536Z,7.90
2024-02-14T08:56:56.806Z,8.00
2024-02-14T08:59:23.438Z,7.90
2024-02-14T09:01:50.220Z,8.00
2024-02-14T09:04:16.929Z,8.00
2024-02-14T09:06:43.761Z,8.10
2024-02-14T09:09:11.489Z,8.10
2024-02-14T09:11:38.744Z,8.10
2024-02-14T09:14:07.531Z,8.10
2024-02-14T09:16:34.838Z,8.20
2024-02-14T09:19:02.294Z,8.20
2024-02-14T09:21:29.457Z,8.20
2024-02-14T09:23:56.390Z,8.30
2024-02-14T09:26:23.181Z,8.30
2024-02-14T09:28:49.968Z,8.30
2024-02-14T09:31:20.847Z,8.40
2024-02-14T09:33:51.064Z,8.50
2024-02-14T09:36:18.049Z,8.50
2024-02-14T09:38:45.707Z,8.40
2024-02-14T09:41:34.572Z,8.50
2024-02-14T09:44:01.282Z,8.50
2024-02-14T09:46:31.428Z,8.60
2024-02-14T09:49:03.265Z,8.60
2024-02-14T09:51:30.713Z,8.60
2024-02-14T09:54:01.504Z,8.60
2024-02-14T09:56:29.763Z,8.60
2024-02-14T09:58:57.676Z,8.70
2024-02-14T10:01:26.733Z,8.80
2024-02-14T10:03:57.079Z,8.80
2024-02-14T10:06:24.923Z,8.80
2024-02-14T10:08:58.455Z,8.90
2024-02-14T10:11:34.308Z,8.90
2024-02-14T10:14:04.028Z,9.00
2024-02-14T10:16:31.305Z,9.00
2024-02-14T10:18:58.134Z,9.10
2024-02-14T10:21:26.833Z,9.10
2024-02-14T10:23:54.524Z,9.40
2024-02-14T10:26:21.628Z,9.20
2024-02-14T10:28:50.415Z,9.20
2024-02-14T10:31:17.635Z,9.20
2024-02-14T10:33:44.972Z,9.30
2024-02-14T10:36:14.072Z,9.30
2024-02-14T10:38:41.594Z,9.30
2024-02-14T10:41:11.173Z,9.50
2024-02-14T10:43:41.190Z,9.40
2024-02-14T10:46:12.481Z,9.50
2024-02-14T10:48:40.163Z,9.50
2024-02-14T10:51:11.726Z,9.50
2024-02-14T10:53:45.716Z,9.50
2024-02-14T10:56:19.841Z,11.60
2024-02-14T10:58:50.192Z,9.50
2024-02-14T11:01:17.918Z,9.60
2024-02-14T11:03:45.721Z,9.70
2024-02-14T11:06:17.540Z,9.70
2024-02-14T11:08:59.783Z,9.80
2024-02-14T11:11:30.352Z,9.90
2024-02-14T11:13:57.721Z,9.90
2024-02-14T11:16:29.918Z,9.90
2024-02-14T11:19:11.407Z,9.90
2024-02-14T11:21:44.138Z,9.90
2024-02-14T11:24:16.410Z,9.90
2024-02-14T11:26:52.049Z,9.90
2024-02-14T11:29:25.096Z,9.90
2024-02-14T11:32:04.005Z,10.40
2024-02-14T11:34:37.743Z,10.10
2024-02-14T11:37:06.723Z,10.10
2024-02-14T11:39:34.956Z,10.20
2024-02-14T11:42:02.595Z,10.10
2024-02-14T11:44:29.307Z,10.10
2024-02-14T11:46:56.079Z,11.30
2024-02-14T11:49:23.054Z,10.20
2024-02-14T11:51:49.992Z,11.20
2024-02-14T11:54:17.172Z,10.30
2024-02-14T11:56:44.011Z,10.40
2024-02-14T11:59:11.514Z,10.30
2024-02-14T12:01:40.599Z,10.40
2024-02-14T12:04:12.392Z,10.40
2024-02-14T12:06:44.656Z,10.40
2024-02-14T12:09:13.731Z,10.40
2024-02-14T12:11:43.561Z,10.40
2024-02-14T12:14:11.280Z,10.50
2024-02-14T12:16:40.695Z,10.50
2024-02-14T12:19:12.159Z,10.40
2024-02-14T12:21:40.424Z,10.50
2024-02-14T12:24:11.488Z,10.60
2024-02-14T12:26:39.805Z,11.20
2024-02-14T12:29:08.182Z,10.60
2024-02-14T12:31:35.398Z,10.60
2024-02-14T12:34:05.985Z,10.70
2024-02-14T12:36:34.230Z,10.70
2024-02-14T12:39:03.682Z,10.80
2024-02-14T12:41:31.616Z,10.80
2024-02-14T12:43:59.574Z,10.90
2024-02-14T12:46:26.405Z,10.80
2024-02-14T12:48:53.305Z,10.90
2024-02-14T12:51:20.176Z,10.90
2024-02-14T12:53:47.061Z,10.90
2024-02-14T12:56:13.798Z,10.90
2024-02-14T12:58:40.527Z,10.90
2024-02-14T13:01:07.844Z,10.90
2024-02-14T13:03:34.785Z,10.90
2024-02-14T13:06:02.602Z,11.00
2024-02-14T13:08:29.429Z,11.00
2024-02-14T13:10:56.219Z,11.00
2024-02-14T13:13:23.095Z,11.00
2024-02-14T13:15:49.733Z,13.00
2024-02-14T13:18:17.802Z,11.10
2024-02-14T13:20:45.882Z,11.10
2024-02-14T13:23:12.863Z,11.00
2024-02-14T13:25:40.243Z,11.10
2024-02-14T13:28:07.602Z,11.20
2024-02-14T13:30:34.433Z,11.30
2024-02-14T13:33:01.360Z,11.20
2024-02-14T13:35:28.721Z,11.10
2024-02-14T13:37:57.361Z,11.20
2024-02-14T13:40:24.159Z,11.20
2024-02-14T13:42:50.839Z,11.20
2024-02-14T13:45:18.063Z,11.20
2024-02-14T13:47:45.233Z,11.20
2024-02-14T13:50:13.563Z,11.20
2024-02-14T13:52:40.697Z,11.20
2024-02-14T13:55:09.060Z,12.20
2024-02-14T13:57:41.570Z,11.20
2024-02-14T14:00:13.357Z,11.20
2024-02-14T14:02:43.418Z,11.20
2024-02-14T14:05:11.275Z,11.20
2024-02-14T14:07:53.663Z,11.30
2024-02-14T14:10:26.685Z,11.30
2024-02-14T14:12:53.481Z,11.30
2024-02-14T14:15:20.267Z,11.30
2024-02-14T14:17:47.431Z,11.30
2024-02-14T14:20:14.397Z,11.40
2024-02-14T14:22:41.241Z,11.30
2024-02-14T14:25:09.205Z,11.20
2024-02-14T14:27:36.505Z,11.30
2024-02-14T14:30:04.256Z,11.40
2024-02-14T14:32:30.996Z,11.40
2024-02-14T14:34:57.738Z,11.40
2024-02-14T14:37:24.501Z,11.30
2024-02-14T14:39:51.316Z,11.40
2024-02-14T14:42:19.211Z,11.30
2024-02-14T14:44:46.130Z,11.40
2024-02-14T14:47:12.971Z,11.40
2024-02-14T14:49:40.144Z,11.40
2024-02-14T14:52:07.021Z,11.40
2024-02-14T14:54:35.086Z,11.50
2024-02-14T14:57:05.395Z,11.50
2024-02-14T14:59:32.330Z,11.40
2024-02-14T15:01:59.090Z,11.40
2024-02-14T15:04:25.981Z,12.80
2024-02-14T15:06:53.988Z,11.80
2024-02-14T15:09:21.625Z,11.50
2024-02-14T15:11:48.420Z,11.50
2024-02-14T15:14:15.165Z,11.50
2024-02-14T15:16:42.665Z,11.50
2024-02-14T15:19:10.063Z,11.50
2024-02-14T15:21:37.028Z,11.50
2024-02-14T15:24:05.109Z,11.40
2024-02-14T15:26:40.292Z,11.40
2024-02-14T15:29:25.678Z,11.40
2024-02-14T15:32:11.334Z,12.90
2024-02-14T15:34:38.150Z,11.40
2024-02-14T15:37:06.597Z,11.50
2024-02-14T15:39:33.226Z,12.10
2024-02-14T15:42:00.026Z,11.40
2024-02-14T15:44:26.686Z,11.50
2024-02-14T15:46:53.379Z,11.40
2024-02-14T15:49:20.063Z,11.40
2024-02-14T15:51:48.120Z,11.50
2024-02-14T15:54:15.112Z,11.40
2024-02-14T15:56:41.889Z,11.50
2024-02-14T15:59:09.491Z,11.50
2024-02-14T16:01:36.146Z,11.50
2024-02-14T16:04:02.809Z,11.50
2024-02-14T16:06:29.544Z,11.60
2024-02-14T16:08:59.641Z,11.50
2024-02-14T16:11:27.321Z,11.40
2024-02-14T16:13:54.852Z,11.40
2024-02-14T16:16:21.578Z,11.50
2024-02-14T16:18:48.445Z,11.50
2024-02-14T16:21:15.339Z,11.50
2024-02-14T16:23:42.592Z,11.50
2024-02-14T16:26:09.287Z,11.50
2024-02-14T16:28:36.283Z,11.50
2024-02-14T16:31:02.988Z,11.40
2024-02-14T16:33:30.002Z,11.50
2024-02-14T16:35:58.065Z,12.00
2024-02-14T16:38:25.143Z,11.40
2024-02-14T16:40:51.846Z,11.40
2024-02-14T16:43:19.020Z,11.40
2024-02-14T16:45:46.292Z,11.40
2024-02-14T16:48:13.162Z,11.50
2024-02-14T16:50:40.144Z,11.40
2024-02-14T16:53:06.885Z,11.40
2024-02-14T16:55:33.617Z,11.50
2024-02-14T16:58:02.513Z,11.50
2024-02-14T17:00:30.269Z,11.50
2024-02-14T17:03:05.255Z,12.00
2024-02-14T17:05:36.756Z,11.50
2024-02-14T17:08:03.803Z,12.00
2024-02-14T17:10:31.601Z,11.40
2024-02-14T17:12:59.058Z,11.40
2024-02-14T17:15:26.487Z,11.50
2024-02-14T17:17:53.254Z,11.50
2024-02-14T17:20:20.802Z,11.50
2024-02-14T17:22:47.850Z,11.50
2024-02-14T17:25:14.463Z,12.00
2024-02-14T17:27:41.736Z,11.50
2024-02-14T17:30:09.948Z,11.40
2024-02-14T17:32:40.337Z,11.50
2024-02-14T17:35:09.771Z,12.40
2024-02-14T17:37:38.586Z,11.50
2024-02-14T17:40:07.880Z,11.40
2024-02-14T17:42:34.681Z,11.50
2024-02-14T17:45:01.415Z,11.90
2024-02-14T17:47:29.446Z,11.50
2024-02-14T17:49:56.366Z,11.50
2024-02-14T17:52:23.821Z,12.30
2024-02-14T17:54:52.139Z,11.50
2024-02-14T17:57:19.711Z,11.40
2024-02-14T17:59:46.656Z,11.40
2024-02-14T18:02:13.484Z,11.60
2024-02-14T18:04:40.711Z,11.40
2024-02-14T18:07:07.779Z,11.40
2024-02-14T18:09:34.950Z,11.40
2024-02-14T18:12:01.714Z,11.40
2024-02-14T18:14:29.498Z,11.40
2024-02-14T18:16:56.113Z,11.40
2024-02-14T18:19:22.876Z,11.40
2024-02-14T18:21:49.860Z,11.40
2024-02-14T18:24:16.805Z,11.40
2024-02-14T18:26:43.526Z,11.40
2024-02-14T18:29:11.486Z,11.40
2024-02-14T18:31:38.395Z,11.40
2024-02-14T18:34:07.588Z,12.20
2024-02-14T18:36:35.551Z,11.50
2024-02-14T18:39:02.468Z,11.50
2024-02-14T18:41:29.099Z,11.60
2024-02-14T18:44:04.274Z,11.50
2024-02-14T18:46:31.212Z,11.50
2024-02-14T18:48:58.736Z,11.50
2024-02-14T18:51:25.614Z,11.50
2024-02-14T18:53:52.296Z,11.50
2024-02-14T18:56:21.576Z,11.50
2024-02-14T18:58:48.295Z,11.50
2024-02-14T19:01:23.630Z,11.50
2024-02-14T19:03:54.067Z,11.40
2024-02-14T19:06:21.644Z,11.50
2024-02-14T19:08:49.559Z,11.50
2024-02-14T19:11:17.764Z,11.50
2024-02-14T19:13:46.181Z,11.50
2024-02-14T19:16:20.330Z,11.50
2024-02-14T19:18:54.826Z,11.50
2024-02-14T19:21:21.598Z,11.50
2024-02-14T19:23:48.421Z,11.50
2024-02-14T19:26:15.285Z,11.50
2024-02-14T19:28:42.054Z,11.40
2024-02-14T19:31:09.048Z,12.00
2024-02-14T19:33:35.918Z,11.50
2024-02-14T19:36:02.752Z,12.40
2024-02-14T19:38:29.522Z,11.50
2024-02-14T19:40:56.395Z,11.50
2024-02-14T19:43:31.817Z,11.50
2024-02-14T19:46:02.077Z,11.90
2024-02-14T19:48:31.392Z,11.50
2024-02-14T19:50:58.902Z,11.40
2024-02-14T19:53:25.787Z,12.00
2024-02-14T19:55:53.449Z,11.50
2024-02-14T19:58:21.008Z,11.50
2024-02-14T20:00:48.501Z,11.50
2024-02-14T20:03:15.405Z,11.50
2024-02-14T20:05:43.689Z,11.50
2024-02-14T20:08:10.697Z,11.40
2024-02-14T20:10:37.420Z,11.40
2024-02-14T20:13:04.616Z,11.50
2024-02-14T20:15:31.672Z,11.50
2024-02-14T20:17:58.583Z,11.60
2024-02-14T20:20:25.284Z,11.60
2024-02-14T20:22:52.344Z,11.60
2024-02-14T20:25:19.122Z,11.90
2024-02-14T20:27:46.079Z,11.60
2024-02-14T20:30:14.138Z,11.60
2024-02-14T20:32:42.929Z,11.60
2024-02-14T20:35:16.356Z,11.70
2024-02-14T20:37:44.532Z,11.60
2024-02-14T20:40:14.526Z,11.90
2024-02-14T20:42:42.943Z,11.70
2024-02-14T20:45:10.915Z,11.60
2024-02-14T20:47:38.321Z,11.70
2024-02-14T20:50:07.048Z,11.60
2024-02-14T20:52:34.329Z,11.60
2024-02-14T20:55:02.142Z,11.60
2024-02-14T20:57:28.965Z,11.70
2024-02-14T20:59:56.145Z,11.70
2024-02-14T21:02:23.275Z,11.70
2024-02-14T21:04:50.020Z,11.60
2024-02-14T21:07:16.945Z,11.60
2024-02-14T21:09:44.297Z,11.60
2024-02-14T21:12:11.372Z,11.80
2024-02-14T21:14:38.557Z,11.70
2024-02-14T21:17:05.468Z,11.70
2024-02-14T21:19:32.181Z,11.70
2024-02-14T21:21:58.974Z,11.70
2024-02-14T21:24:25.842Z,11.70
2024-02-14T21:26:53.246Z,11.60
2024-02-14T21:29:20.143Z,11.70
2024-02-14T21:31:46.870Z,11.60
2024-02-14T21:34:13.883Z,11.70
2024-02-14T21:36:40.877Z,11.70
2024-02-14T21:39:07.927Z,12.30
2024-02-14T21:41:35.928Z,11.70
2024-02-14T21:44:03.803Z,11.80
2024-02-14T21:46:30.882Z,11.70
2024-02-14T21:48:58.639Z,11.70
2024-02-14T21:51:26.694Z,11.80
2024-02-14T21:53:53.527Z,11.80
2024-02-14T21:56:20.620Z,11.90
2024-02-14T21:58:47.550Z,11.90
2024-02-14T22:01:14.342Z,11.80
2024-02-14T22:03:41.121Z,12.10
2024-02-14T22:06:08.195Z,11.80
2024-02-14T22:08:35.098Z,11.80
2024-02-14T22:11:01.924Z,11.10
2024-02-14T22:13:28.630Z,11.80
2024-02-14T22:15:55.809Z,11.80
2024-02-14T22:18:22.619Z,11.80
2024-02-14T22:20:49.637Z,11.80
2024-02-14T22:23:16.769Z,11.80
2024-02-14T22:25:43.491Z,11.80
2024-02-14T22:28:10.250Z,11.80
2024-02-14T22:30:38.237Z,11.80
2024-02-14T22:33:05.236Z,11.80
2024-02-14T22:35:32.620Z,11.90
2024-02-14T22:38:00.364Z,11.90
2024-02-14T22:40:28.269Z,11.90
2024-02-14T22:42:54.918Z,11.90
2024-02-14T22:45:22.233Z,11.90
2024-02-14T22:47:49.085Z,12.00
2024-02-14T22:50:15.940Z,11.90
2024-02-14T22:52:43.059Z,11.90
2024-02-14T22:55:10.918Z,11.90
2024-02-14T22:57:37.588Z,11.90
2024-02-14T23:00:07.988Z,11.90
2024-02-14T23:02:34.876Z,11.90
2024-02-14T23:05:01.529Z,12.50
2024-02-14T23:07:29.154Z,11.90
2024-02-14T23:09:55.797Z,11.90
2024-02-14T23:12:22.576Z,11.90
2024-02-14T23:14:49.367Z,11.90
2024-02-14T23:17:15.997Z,11.90
2024-02-14T23:19:42.770Z,11.90
2024-02-14T23:22:09.658Z,11.90
2024-02-14T23:24:36.346Z,12.00
2024-02-14T23:27:03.635Z,11.90
2024-02-14T23:29:30.366Z,11.90
2024-02-14T23:31:57.239Z,11.90
2024-02-14T23:34:24.064Z,11.90
2024-02-14T23:36:51.507Z,11.90
2024-02-14T23:39:18.155Z,11.90
2024-02-14T23:41:44.790Z,11.90
2024-02-14T23:44:11.470Z,12.70
2024-02-14T23:46:38.089Z,11.90
2024-02-14T23:49:05.719Z,13.60
2024-02-14T23:51:33.979Z,11.90
2024-02-14T23:54:00.990Z,11.90
2024-02-14T23:56:27.855Z,11.90
2024-02-14T23:58:54.549Z,11.90
